createdAt,value
2018-06-19T00:00:17.530Z,88.38
2018-06-19T00:01:17.533Z,89.63
2018-06-19T00:02:17.535Z,88.67
2018-06-19T00:03:17.537Z,89.43
2018-06-19T00:04:17.541Z,89.09
2018-06-19T00:05:17.543Z,88.85
2018-06-19T00:06:17.547Z,88.38
2018-06-19T00:07:17.548Z,89.43
2018-06-19T00:08:17.550Z,88.76
2018-06-19T00:09:17.553Z,88.81
2018-06-19T00:10:17.556Z,88.81
2018-06-19T00:11:17.560Z,89.63
2018-06-19T00:12:17.567Z,88.42
2018-06-19T00:13:17.573Z,88.90
2018-06-19T00:14:17.565Z,89.53
2018-06-19T00:15:17.569Z,88.81
2018-06-19T00:16:17.569Z,89.00
2018-06-19T00:17:17.575Z,89.09
2018-06-19T00:18:17.574Z,88.90
2018-06-19T00:19:17.580Z,89.53
2018-06-19T00:20:17.578Z,88.61
2018-06-19T00:21:17.580Z,89.77
2018-06-19T00:22:17.583Z,88.42
2018-06-19T00:23:17.587Z,89.77
2018-06-19T00:24:17.591Z,89.39
2018-06-19T00:25:17.592Z,89.63
2018-06-19T00:26:17.595Z,88.47
2018-06-19T00:27:17.600Z,89.24
2018-06-19T00:28:17.599Z,89.34
2018-06-19T00:29:17.605Z,89.24
2018-06-19T00:30:17.605Z,88.47
2018-06-19T00:31:17.605Z,89.53
2018-06-19T00:32:17.608Z,89.05
2018-06-19T00:33:17.620Z,89.24
2018-06-19T00:34:17.615Z,89.43
2018-06-19T00:35:17.622Z,88.95
2018-06-19T00:36:17.628Z,89.53
2018-06-19T00:37:17.623Z,88.76
2018-06-19T00:38:17.624Z,89.05
2018-06-19T00:39:17.629Z,89.24
2018-06-19T00:40:17.632Z,88.67
2018-06-19T00:41:17.633Z,89.53
2018-06-19T00:42:17.636Z,89.53
2018-06-19T00:43:17.638Z,89.05
2018-06-19T00:44:17.638Z,89.43
2018-06-19T00:45:17.640Z,89.05
2018-06-19T00:46:17.651Z,89.15
2018-06-19T00:47:17.648Z,89.29
2018-06-19T00:48:17.651Z,88.71
2018-06-19T00:49:17.654Z,89.05
2018-06-19T00:50:17.655Z,89.72
2018-06-19T00:51:17.657Z,88.81
2018-06-19T00:52:17.659Z,89.53
2018-06-19T00:53:17.668Z,89.58
2018-06-19T00:54:17.666Z,88.47
2018-06-19T00:55:17.665Z,89.53
2018-06-19T00:56:17.669Z,89.05
2018-06-19T00:57:17.672Z,88.85
2018-06-19T00:58:17.674Z,88.95
2018-06-19T00:59:17.676Z,88.85
2018-06-19T01:00:17.689Z,88.95
2018-06-19T01:01:17.681Z,88.81
2018-06-19T01:02:17.684Z,88.85
2018-06-19T01:03:17.687Z,88.81
2018-06-19T01:04:17.687Z,88.85
2018-06-19T01:05:17.692Z,89.15
2018-06-19T01:06:17.694Z,88.95
2018-06-19T01:07:17.696Z,89.82
2018-06-19T01:08:17.702Z,88.85
2018-06-19T01:09:17.700Z,88.81
2018-06-19T01:10:17.701Z,88.91
2018-06-19T01:11:17.705Z,89.01
2018-06-19T01:12:17.709Z,88.71
2018-06-19T01:13:17.709Z,88.71
2018-06-19T01:14:17.713Z,88.95
2018-06-19T01:15:17.716Z,89.01
2018-06-19T01:16:17.717Z,89.24
2018-06-19T01:17:17.725Z,88.95
2018-06-19T01:18:17.725Z,88.67
2018-06-19T01:19:17.726Z,88.76
2018-06-19T01:20:17.731Z,89.05
2018-06-19T01:21:17.731Z,89.05
2018-06-19T01:22:17.738Z,88.47
2018-06-19T01:23:17.736Z,89.20
2018-06-19T01:24:17.738Z,88.81
2018-06-19T01:25:17.740Z,88.71
2018-06-19T01:26:17.744Z,88.43
2018-06-19T01:27:17.745Z,89.10
2018-06-19T01:28:17.747Z,89.01
2018-06-19T01:29:17.752Z,88.24
2018-06-19T01:30:17.753Z,88.24
2018-06-19T01:31:17.757Z,88.33
2018-06-19T01:32:17.765Z,88.43
2018-06-19T01:33:17.759Z,88.71
2018-06-19T01:34:17.761Z,88.81
2018-06-19T01:35:17.765Z,88.81
2018-06-19T01:36:17.767Z,88.62
2018-06-19T01:37:17.770Z,88.71
2018-06-19T01:38:17.867Z,88.33
2018-06-19T01:39:17.775Z,88.33
2018-06-19T01:40:17.775Z,88.53
2018-06-19T01:41:17.780Z,88.62
2018-06-19T01:42:17.782Z,88.29
2018-06-19T01:43:17.783Z,87.90
2018-06-19T01:44:17.785Z,88.39
2018-06-19T01:45:17.787Z,88.10
2018-06-19T01:46:17.793Z,87.90
2018-06-19T01:47:17.796Z,87.90
2018-06-19T01:48:17.797Z,87.81
2018-06-19T01:49:17.796Z,87.33
2018-06-19T01:50:17.797Z,87.81
2018-06-19T01:51:17.802Z,87.71
2018-06-19T01:52:17.803Z,87.71
2018-06-19T01:53:17.804Z,87.23
2018-06-19T01:54:17.811Z,87.52
2018-06-19T01:55:17.809Z,87.33
2018-06-19T01:56:17.810Z,86.99
2018-06-19T01:57:17.812Z,87.33
2018-06-19T01:58:17.823Z,87.62
2018-06-19T01:59:17.821Z,87.09
2018-06-19T02:00:17.827Z,86.99
2018-06-19T02:01:17.827Z,86.99
2018-06-19T02:02:17.826Z,86.42
2018-06-19T02:03:17.829Z,86.13
2018-06-19T02:04:17.833Z,86.71
2018-06-19T02:05:17.831Z,86.52
2018-06-19T02:06:17.833Z,86.13
2018-06-19T02:07:17.837Z,85.94
2018-06-19T02:08:17.838Z,85.65
2018-06-19T02:09:17.842Z,85.75
2018-06-19T02:10:17.841Z,86.13
2018-06-19T02:11:17.844Z,85.65
2018-06-19T02:12:17.845Z,85.22
2018-06-19T02:13:17.850Z,85.03
2018-06-19T02:14:17.849Z,85.22
2018-06-19T02:15:17.852Z,85.03
2018-06-19T02:16:17.855Z,85.13
2018-06-19T02:17:17.857Z,85.13
2018-06-19T02:18:17.853Z,84.74
2018-06-19T02:19:17.862Z,84.45
2018-06-19T02:20:17.864Z,84.26
2018-06-19T02:21:17.864Z,84.45
2018-06-19T02:22:17.866Z,84.64
2018-06-19T02:23:17.868Z,84.26
2018-06-19T02:24:17.869Z,83.69
2018-06-19T02:25:17.874Z,84.26
2018-06-19T02:26:17.874Z,82.92
2018-06-19T02:27:17.874Z,83.30
2018-06-19T02:28:17.877Z,83.20
2018-06-19T02:29:17.877Z,83.11
2018-06-19T02:30:17.881Z,83.11
2018-06-19T02:31:17.888Z,83.40
2018-06-19T02:32:17.886Z,83.40
2018-06-19T02:33:17.886Z,82.53
2018-06-19T02:34:17.894Z,82.96
2018-06-19T02:35:17.894Z,83.44
2018-06-19T02:36:17.895Z,82.76
2018-06-19T02:37:17.896Z,83.06
2018-06-19T02:38:17.902Z,82.96
2018-06-19T02:39:17.895Z,82.57
2018-06-19T02:40:17.897Z,82.48
2018-06-19T02:41:17.908Z,82.57
2018-06-19T02:42:17.904Z,82.57
2018-06-19T02:43:17.906Z,83.44
2018-06-19T02:44:17.914Z,83.15
2018-06-19T02:45:17.910Z,83.44
2018-06-19T02:46:17.911Z,82.48
2018-06-19T02:47:17.914Z,83.44
2018-06-19T02:48:17.917Z,83.44
2018-06-19T02:49:17.921Z,83.15
2018-06-19T02:50:17.921Z,82.96
2018-06-19T02:51:17.925Z,83.34
2018-06-19T02:52:17.925Z,82.86
2018-06-19T02:53:17.925Z,82.57
2018-06-19T02:54:17.927Z,82.38
2018-06-19T02:55:17.929Z,82.19
2018-06-19T02:56:17.931Z,82.19
2018-06-19T02:57:17.932Z,82.38
2018-06-19T02:58:17.935Z,81.90
2018-06-19T02:59:17.937Z,81.90
2018-06-19T03:00:18.095Z,81.99
2018-06-19T03:01:17.940Z,82.29
2018-06-19T03:02:17.940Z,82.19
2018-06-19T03:03:17.945Z,82.38
2018-06-19T03:04:17.943Z,82.19
2018-06-19T03:05:17.950Z,82.67
2018-06-19T03:06:17.953Z,81.90
2018-06-19T03:07:17.952Z,82.29
2018-06-19T03:08:17.955Z,82.42
2018-06-19T03:09:17.956Z,82.32
2018-06-19T03:10:17.958Z,81.94
2018-06-19T03:11:17.961Z,82.42
2018-06-19T03:12:17.961Z,82.04
2018-06-19T03:13:17.967Z,82.04
2018-06-19T03:14:17.970Z,82.61
2018-06-19T03:15:17.968Z,82.14
2018-06-19T03:16:17.974Z,82.42
2018-06-19T03:17:17.972Z,82.71
2018-06-19T03:18:17.975Z,82.32
2018-06-19T03:19:17.978Z,82.32
2018-06-19T03:20:17.984Z,80.21
2018-06-19T03:21:17.979Z,79.82
2018-06-19T03:22:17.981Z,78.09
2018-06-19T03:23:17.983Z,77.09
2018-06-19T03:24:17.985Z,76.81
2018-06-19T03:25:17.998Z,74.60
2018-06-19T03:26:17.990Z,73.83
2018-06-19T03:27:17.992Z,73.11
2018-06-19T03:28:17.991Z,71.39
2018-06-19T03:29:17.996Z,70.81
2018-06-19T03:30:18.046Z,70.04
2018-06-19T03:31:18.001Z,69.66
2018-06-19T03:32:18.003Z,69.18
2018-06-19T03:33:18.004Z,68.12
2018-06-19T03:34:18.011Z,68.28
2018-06-19T03:35:18.011Z,67.13
2018-06-19T03:36:18.009Z,66.26
2018-06-19T03:37:18.025Z,66.36
2018-06-19T03:38:18.012Z,65.30
2018-06-19T03:39:18.014Z,65.11
2018-06-19T03:40:18.017Z,65.01
2018-06-19T03:41:18.016Z,64.82
2018-06-19T03:42:18.023Z,64.25
2018-06-19T03:43:18.020Z,63.28
2018-06-19T03:44:18.020Z,62.99
2018-06-19T03:45:18.024Z,63.38
2018-06-19T03:46:18.025Z,62.61
2018-06-19T03:47:18.026Z,62.23
2018-06-19T03:48:18.028Z,62.81
2018-06-19T03:49:18.031Z,62.71
2018-06-19T03:50:18.029Z,62.81
2018-06-19T03:51:18.033Z,62.04
2018-06-19T03:52:18.032Z,61.27
2018-06-19T03:53:18.037Z,61.55
2018-06-19T03:54:18.039Z,61.65
2018-06-19T03:55:18.041Z,60.88
2018-06-19T03:56:18.039Z,60.88
2018-06-19T03:57:18.039Z,60.31
2018-06-19T03:58:18.044Z,60.60
2018-06-19T03:59:18.044Z,59.92
2018-06-19T04:00:18.045Z,59.73
2018-06-19T04:01:18.106Z,59.73
2018-06-19T04:02:18.045Z,59.34
2018-06-19T04:03:18.050Z,59.25
2018-06-19T04:04:18.050Z,58.87
2018-06-19T04:05:18.052Z,58.77
2018-06-19T04:06:18.052Z,59.25
2018-06-19T04:07:18.058Z,59.06
2018-06-19T04:08:18.060Z,59.25
2018-06-19T04:09:18.061Z,59.06
2018-06-19T04:10:18.061Z,58.77
2018-06-19T04:11:18.062Z,58.96
2018-06-19T04:12:18.065Z,59.06
2018-06-19T04:13:18.063Z,59.06
2018-06-19T04:14:18.067Z,58.67
2018-06-19T04:15:18.073Z,59.54
2018-06-19T04:16:18.089Z,58.96
2018-06-19T04:17:18.159Z,59.06
2018-06-19T04:18:18.073Z,58.48
2018-06-19T04:19:18.076Z,58.67
2018-06-19T04:20:18.076Z,58.48
2018-06-19T04:21:18.073Z,58.58
2018-06-19T04:22:18.078Z,58.51
2018-06-19T04:23:18.079Z,58.42
2018-06-19T04:24:18.082Z,58.32
2018-06-19T04:25:18.084Z,59.09
2018-06-19T04:26:18.089Z,58.32
2018-06-19T04:27:18.090Z,58.03
2018-06-19T04:28:18.089Z,57.93
2018-06-19T04:29:18.101Z,58.61
2018-06-19T04:30:18.094Z,58.61
2018-06-19T04:31:18.100Z,58.70
2018-06-19T04:32:18.104Z,58.42
2018-06-19T04:33:18.136Z,58.32
2018-06-19T04:34:18.102Z,58.42
2018-06-19T04:35:18.105Z,58.42
2018-06-19T04:36:18.104Z,59.38
2018-06-19T04:37:18.107Z,58.89
2018-06-19T04:38:18.109Z,59.09
2018-06-19T04:39:18.111Z,58.61
2018-06-19T04:40:18.113Z,57.93
2018-06-19T04:41:18.116Z,58.51
2018-06-19T04:42:18.117Z,58.70
2018-06-19T04:43:18.117Z,59.38
2018-06-19T04:44:18.118Z,59.09
2018-06-19T04:45:18.120Z,59.12
2018-06-19T04:46:18.123Z,59.12
2018-06-19T04:47:18.126Z,59.31
2018-06-19T04:48:18.126Z,59.99
2018-06-19T04:49:18.130Z,60.56
2018-06-19T04:50:18.131Z,60.75
2018-06-19T04:51:18.134Z,61.71
2018-06-19T04:52:18.134Z,61.52
2018-06-19T04:53:18.136Z,62.10
2018-06-19T04:54:18.141Z,62.19
2018-06-19T04:55:18.141Z,61.43
2018-06-19T04:56:18.142Z,61.52
2018-06-19T04:57:18.145Z,60.66
2018-06-19T04:58:18.149Z,60.85
2018-06-19T04:59:18.149Z,61.14
2018-06-19T05:00:18.150Z,62.10
2018-06-19T05:01:18.152Z,62.38
2018-06-19T05:02:18.154Z,61.52
2018-06-19T05:03:18.157Z,61.52
2018-06-19T05:04:18.155Z,61.23
2018-06-19T05:05:18.157Z,61.04
2018-06-19T05:06:18.162Z,62.77
2018-06-19T05:07:18.165Z,61.52
2018-06-19T05:08:18.173Z,62.51
2018-06-19T05:09:18.170Z,61.71
2018-06-19T05:10:18.171Z,62.41
2018-06-19T05:11:18.171Z,61.91
2018-06-19T05:12:18.178Z,62.80
2018-06-19T05:13:18.178Z,62.68
2018-06-19T05:14:18.179Z,62.38
2018-06-19T05:15:18.190Z,63.76
2018-06-19T05:16:18.184Z,62.71
2018-06-19T05:17:18.185Z,63.67
2018-06-19T05:18:18.191Z,65.59
2018-06-19T05:19:18.197Z,65.20
2018-06-19T05:20:18.224Z,65.78
2018-06-19T05:21:18.194Z,67.80
2018-06-19T05:22:18.197Z,65.40
2018-06-19T05:23:18.202Z,65.30
2018-06-19T05:24:18.204Z,66.27
2018-06-19T05:25:18.203Z,65.81
2018-06-19T05:26:18.207Z,66.01
2018-06-19T05:27:18.205Z,65.53
2018-06-19T05:28:18.209Z,66.01
2018-06-19T05:29:18.214Z,66.20
2018-06-19T05:30:18.236Z,67.74
2018-06-19T05:31:18.218Z,68.26
2018-06-19T05:32:18.219Z,67.49
2018-06-19T05:33:18.224Z,70.18
2018-06-19T05:34:18.223Z,69.70
2018-06-19T05:35:18.230Z,69.70
2018-06-19T05:36:18.224Z,71.91
2018-06-19T05:37:18.230Z,71.56
2018-06-19T05:38:18.231Z,73.53
2018-06-19T05:39:18.241Z,75.93
2018-06-19T05:40:18.237Z,75.36
2018-06-19T05:41:18.240Z,78.00
2018-06-19T05:42:18.242Z,79.68
2018-06-19T05:43:18.246Z,83.62
2018-06-19T05:44:18.247Z,86.20
2018-06-19T05:45:18.249Z,88.62
2018-06-19T05:46:18.290Z,87.99
2018-06-19T05:47:18.260Z,88.81
2018-06-19T05:48:18.257Z,88.37
2018-06-19T05:49:18.261Z,88.95
2018-06-19T05:50:18.264Z,89.23
2018-06-19T05:51:18.266Z,89.37
2018-06-19T05:52:18.267Z,89.03
2018-06-19T05:53:18.271Z,88.61
2018-06-19T05:54:18.275Z,89.29
2018-06-19T05:55:18.278Z,88.43
2018-06-19T05:56:18.284Z,88.24
2018-06-19T05:57:18.283Z,87.33
2018-06-19T05:58:18.289Z,88.45
2018-06-19T05:59:18.293Z,88.06
2018-06-19T06:00:18.296Z,85.37
2018-06-19T06:01:18.297Z,83.01
2018-06-19T06:02:18.301Z,81.43
2018-06-19T06:03:18.308Z,78.69
2018-06-19T06:04:18.307Z,78.73
2018-06-19T06:05:18.314Z,80.27
2018-06-19T06:06:18.313Z,82.68
2018-06-19T06:07:18.321Z,85.41
2018-06-19T06:08:18.321Z,84.35
2018-06-19T06:09:18.322Z,84.68
2018-06-19T06:10:18.328Z,87.18
2018-06-19T06:11:18.370Z,88.05
2018-06-19T06:12:18.335Z,89.05
2018-06-19T06:13:18.337Z,88.28
2018-06-19T06:14:18.345Z,89.18
2018-06-19T06:15:18.345Z,88.79
2018-06-19T06:16:18.344Z,87.34
2018-06-19T06:17:18.349Z,87.37
2018-06-19T06:18:18.350Z,86.10
2018-06-19T06:19:18.354Z,84.31
2018-06-19T06:20:18.357Z,83.65
2018-06-19T06:21:18.360Z,82.00
2018-06-19T06:22:18.365Z,81.63
2018-06-19T06:23:18.369Z,80.62
2018-06-19T06:24:18.374Z,80.76
2018-06-19T06:25:18.379Z,80.93
2018-06-19T06:26:18.383Z,79.66
2018-06-19T06:27:18.384Z,78.15
2018-06-19T06:28:18.391Z,77.70
2018-06-19T06:29:18.393Z,75.43
2018-06-19T06:30:18.408Z,72.90
2018-06-19T06:31:18.453Z,72.64
2018-06-19T06:32:18.411Z,71.50
2018-06-19T06:33:18.410Z,72.45
2018-06-19T06:34:18.419Z,73.55
2018-06-19T06:35:18.422Z,74.22
2018-06-19T06:36:18.426Z,78.20
2018-06-19T06:37:18.436Z,77.23
2018-06-19T06:38:18.435Z,76.77
2018-06-19T06:39:18.442Z,76.38
2018-06-19T06:40:18.446Z,77.35
2018-06-19T06:41:18.451Z,76.48
2018-06-19T06:42:18.456Z,75.87
2018-06-19T06:43:18.462Z,74.45
2018-06-19T06:44:18.465Z,75.32
2018-06-19T06:45:18.471Z,71.95
2018-06-19T06:46:18.477Z,72.38
2018-06-19T06:47:18.484Z,70.76
2018-06-19T06:48:18.494Z,69.78
2018-06-19T06:49:18.495Z,69.88
2018-06-19T06:50:18.602Z,69.56
2018-06-19T06:51:18.505Z,67.22
2018-06-19T06:52:18.515Z,66.11
2018-06-19T06:53:18.517Z,65.30
2018-06-19T06:54:18.522Z,65.85
2018-06-19T06:55:18.529Z,67.90
2018-06-19T06:56:18.536Z,72.36
2018-06-19T06:57:18.541Z,75.57
2018-06-19T06:58:18.548Z,74.85
2018-06-19T06:59:18.555Z,77.78
2018-06-19T07:00:18.561Z,78.33
2018-06-19T07:01:18.683Z,78.89
2018-06-19T07:02:18.575Z,78.58
2018-06-19T07:03:18.587Z,78.89
2018-06-19T07:04:18.585Z,76.42
2018-06-19T07:05:18.592Z,74.28
2018-06-19T07:06:18.594Z,73.22
2018-06-19T07:07:18.604Z,72.83
2018-06-19T07:08:18.606Z,71.23
2018-06-19T07:09:18.613Z,68.80
2018-06-19T07:10:18.695Z,65.23
2018-06-19T07:11:18.630Z,65.17
2018-06-19T07:12:18.636Z,64.06
2018-06-19T07:13:18.640Z,61.59
2018-06-19T07:14:18.647Z,62.11
2018-06-19T07:15:18.653Z,62.02
2018-06-19T07:16:18.665Z,64.75
2018-06-19T07:17:18.666Z,65.04
2018-06-19T07:18:18.672Z,64.68
2018-06-19T07:19:18.714Z,61.49
2018-06-19T07:20:18.684Z,61.62
2018-06-19T07:21:18.692Z,60.89
2018-06-19T07:22:18.698Z,60.24
2018-06-19T07:23:18.708Z,59.09
2018-06-19T07:24:18.711Z,57.99
2018-06-19T07:25:18.721Z,61.21
2018-06-19T07:26:18.730Z,65.82
2018-06-19T07:27:18.736Z,64.29
2018-06-19T07:28:18.739Z,63.31
2018-06-19T07:29:18.751Z,63.09
2018-06-19T07:30:18.758Z,62.50
2018-06-19T07:31:18.765Z,59.92
2018-06-19T07:32:18.772Z,57.71
2018-06-19T07:33:18.780Z,59.41
2018-06-19T07:34:18.787Z,61.50
2018-06-19T07:35:18.796Z,61.93
2018-06-19T07:36:18.801Z,62.73
2018-06-19T07:37:18.809Z,63.19
2018-06-19T07:38:18.868Z,64.65
2018-06-19T07:39:18.830Z,66.34
2018-06-19T07:40:18.840Z,69.15
2018-06-19T07:41:18.840Z,69.90
2018-06-19T07:42:18.849Z,67.08
2018-06-19T07:43:18.854Z,65.59
2018-06-19T07:44:18.866Z,63.31
2018-06-19T07:45:18.869Z,61.17
2018-06-19T07:46:18.877Z,60.61
2018-06-19T07:47:18.882Z,61.53
2018-06-19T07:48:18.892Z,60.49
2018-06-19T07:49:18.904Z,60.71
2018-06-19T07:50:18.904Z,59.99
2018-06-19T07:51:18.914Z,61.27
2018-06-19T07:52:18.923Z,62.05
2018-06-19T07:53:18.929Z,62.89
2018-06-19T07:54:18.938Z,61.33
2018-06-19T07:55:18.948Z,60.77
2018-06-19T07:56:19.001Z,59.99
2018-06-19T07:57:18.971Z,57.77
2018-06-19T07:58:18.987Z,57.21
2018-06-19T07:59:18.978Z,57.85
2018-06-19T08:00:18.987Z,62.54
2018-06-19T08:01:18.995Z,62.87
2018-06-19T08:02:19.002Z,62.57
2018-06-19T08:03:19.009Z,63.48
2018-06-19T08:04:19.016Z,63.61
2018-06-19T08:05:19.024Z,61.53
2018-06-19T08:06:19.032Z,58.53
2018-06-19T08:07:19.041Z,59.34
2018-06-19T08:08:19.048Z,58.30
2018-06-19T08:09:19.056Z,55.86
2018-06-19T08:10:19.069Z,55.76
2018-06-19T08:11:19.076Z,56.61
2018-06-19T08:12:19.082Z,57.07
2018-06-19T08:13:19.091Z,56.93
2018-06-19T08:14:19.097Z,56.84
2018-06-19T08:15:19.107Z,56.38
2018-06-19T08:16:19.115Z,57.17
2018-06-19T08:17:19.124Z,58.22
2018-06-19T08:18:19.133Z,59.16
2018-06-19T08:19:19.143Z,58.22
2018-06-19T08:20:19.148Z,57.56
2018-06-19T08:21:19.166Z,57.62
2018-06-19T08:22:19.167Z,56.61
2018-06-19T08:23:19.176Z,57.25
2018-06-19T08:24:19.185Z,55.52
2018-06-19T08:25:19.193Z,55.52
2018-06-19T08:26:19.214Z,53.69
2018-06-19T08:27:19.228Z,52.44
2018-06-19T08:28:19.219Z,52.51
2018-06-19T08:29:19.224Z,53.23
2018-06-19T08:30:19.239Z,51.98
2018-06-19T08:31:19.249Z,51.73
2018-06-19T08:32:19.256Z,52.61
2018-06-19T08:33:19.270Z,52.20
2018-06-19T08:34:19.277Z,52.39
2018-06-19T08:35:19.287Z,53.37
2018-06-19T08:36:19.337Z,53.42
2018-06-19T08:37:19.304Z,53.59
2018-06-19T08:38:19.314Z,52.42
2018-06-19T08:39:19.325Z,51.86
2018-06-19T08:40:19.334Z,51.59
2018-06-19T08:41:19.344Z,51.05
2018-06-19T08:42:19.356Z,52.15
2018-06-19T08:43:19.365Z,53.32
2018-06-19T08:44:19.374Z,53.56
2018-06-19T08:45:19.384Z,51.93
2018-06-19T08:46:19.397Z,52.05
2018-06-19T08:47:19.404Z,51.25
2018-06-19T08:48:19.416Z,52.59
2018-06-19T08:49:19.424Z,52.20
2018-06-19T08:50:19.440Z,55.22
2018-06-19T08:51:19.449Z,55.19
2018-06-19T08:52:19.455Z,55.71
2018-06-19T08:53:19.467Z,55.37
2018-06-19T08:54:19.541Z,55.54
2018-06-19T08:55:19.545Z,57.00
2018-06-19T08:56:19.499Z,56.97
2018-06-19T08:57:19.506Z,56.41
2018-06-19T08:58:19.515Z,54.49
2018-06-19T08:59:19.524Z,52.42
2018-06-19T09:00:19.550Z,51.20
2018-06-19T09:01:19.544Z,49.11
2018-06-19T09:02:19.552Z,50.56
2018-06-19T09:03:19.561Z,52.12
2018-06-19T09:04:19.572Z,52.17
2018-06-19T09:05:19.582Z,50.61
2018-06-19T09:06:19.591Z,50.34
2018-06-19T09:07:19.605Z,50.98
2018-06-19T09:08:19.611Z,53.24
2018-06-19T09:09:19.617Z,55.29
2018-06-19T09:10:19.625Z,57.01
2018-06-19T09:11:19.637Z,57.45
2018-06-19T09:12:19.644Z,57.76
2018-06-19T09:13:19.717Z,57.60
2018-06-19T09:14:19.663Z,57.90
2018-06-19T09:15:19.670Z,58.03
2018-06-19T09:16:19.678Z,59.66
2018-06-19T09:17:19.686Z,58.78
2018-06-19T09:18:19.696Z,58.95
2018-06-19T09:19:19.711Z,59.27
2018-06-19T09:20:19.730Z,59.88
2018-06-19T09:21:19.724Z,60.66
2018-06-19T09:22:19.728Z,58.91
2018-06-19T09:23:19.737Z,59.56
2018-06-19T09:24:19.784Z,59.46
2018-06-19T09:25:19.751Z,60.27
2018-06-19T09:26:19.760Z,60.24
2018-06-19T09:27:19.768Z,60.53
2018-06-19T09:28:19.772Z,61.02
2018-06-19T09:29:19.781Z,59.78
2018-06-19T09:30:19.789Z,61.11
2018-06-19T09:31:19.815Z,60.00
2018-06-19T09:32:19.807Z,59.49
2018-06-19T09:33:19.813Z,60.27
2018-06-19T09:34:19.823Z,59.36
2018-06-19T09:35:19.831Z,59.41
2018-06-19T09:36:19.851Z,60.25
2018-06-19T09:37:19.843Z,60.18
2018-06-19T09:38:19.850Z,59.99
2018-06-19T09:39:19.857Z,60.05
2018-06-19T09:40:19.865Z,59.69
2018-06-19T09:41:19.872Z,59.41
2018-06-19T09:42:19.880Z,59.41
2018-06-19T09:43:19.886Z,59.69
2018-06-19T09:44:19.895Z,58.92
2018-06-19T09:45:19.902Z,59.72
2018-06-19T09:46:19.908Z,58.65
2018-06-19T09:47:19.917Z,59.31
2018-06-19T09:48:19.922Z,59.21
2018-06-19T09:49:19.929Z,59.59
2018-06-19T09:50:19.936Z,58.72
2018-06-19T09:51:19.943Z,60.47
2018-06-19T09:52:19.950Z,58.50
2018-06-19T09:53:19.956Z,59.18
2018-06-19T09:54:19.964Z,61.09
2018-06-19T09:55:19.971Z,60.80
2018-06-19T09:56:19.977Z,61.90
2018-06-19T09:57:19.986Z,61.32
2018-06-19T09:58:20.014Z,61.09
2018-06-19T09:59:20.050Z,61.25
2018-06-19T10:00:20.007Z,61.91
2018-06-19T10:01:20.012Z,62.59
2018-06-19T10:02:20.018Z,62.71
2018-06-19T10:03:20.025Z,62.32
2018-06-19T10:04:20.030Z,62.01
2018-06-19T10:05:20.037Z,61.84
2018-06-19T10:06:20.113Z,61.84
2018-06-19T10:07:20.059Z,63.23
2018-06-19T10:08:20.056Z,62.04
2018-06-19T10:09:20.062Z,62.26
2018-06-19T10:10:20.068Z,63.68
2018-06-19T10:11:20.076Z,64.01
2018-06-19T10:12:20.319Z,62.84
2018-06-19T10:13:20.090Z,61.77
2018-06-19T10:14:20.094Z,62.35
2018-06-19T10:15:20.101Z,62.42
2018-06-19T10:16:20.108Z,63.26
2018-06-19T10:17:20.112Z,63.95
2018-06-19T10:18:20.117Z,64.40
2018-06-19T10:19:20.124Z,64.30
2018-06-19T10:20:20.131Z,63.62
2018-06-19T10:21:20.143Z,64.01
2018-06-19T10:22:20.142Z,64.07
2018-06-19T10:23:20.149Z,64.30
2018-06-19T10:24:20.155Z,65.75
2018-06-19T10:25:20.164Z,64.56
2018-06-19T10:26:20.168Z,65.63
2018-06-19T10:27:20.174Z,66.30
2018-06-19T10:28:20.178Z,66.24
2018-06-19T10:29:20.186Z,65.59
2018-06-19T10:30:20.190Z,65.56
2018-06-19T10:31:20.200Z,66.08
2018-06-19T10:32:20.204Z,64.14
2018-06-19T10:33:20.212Z,64.40
2018-06-19T10:34:20.213Z,64.50
2018-06-19T10:35:20.219Z,64.78
2018-06-19T10:36:20.226Z,64.11
2018-06-19T10:37:20.233Z,63.65
2018-06-19T10:38:20.240Z,63.65
2018-06-19T10:39:20.247Z,64.50
2018-06-19T10:40:20.344Z,64.50
2018-06-19T10:41:20.252Z,65.75
2018-06-19T10:42:20.259Z,65.89
2018-06-19T10:43:20.264Z,65.14
2018-06-19T10:44:20.270Z,65.11
2018-06-19T10:45:20.276Z,65.24
2018-06-19T10:46:20.280Z,64.33
2018-06-19T10:47:20.287Z,65.53
2018-06-19T10:48:20.293Z,66.02
2018-06-19T10:49:20.297Z,63.88
2018-06-19T10:50:20.304Z,65.59
2018-06-19T10:51:20.309Z,65.30
2018-06-19T10:52:20.315Z,65.82
2018-06-19T10:53:20.319Z,65.63
2018-06-19T10:54:20.327Z,64.85
2018-06-19T10:55:20.332Z,65.43
2018-06-19T10:56:20.339Z,64.88
2018-06-19T10:57:20.346Z,64.20
2018-06-19T10:58:20.350Z,65.17
2018-06-19T10:59:20.359Z,65.30
2018-06-19T11:00:20.360Z,64.01
2018-06-19T11:01:20.366Z,63.65
2018-06-19T11:02:20.377Z,62.35
2018-06-19T11:03:20.381Z,63.04
2018-06-19T11:04:20.385Z,62.29
2018-06-19T11:05:20.392Z,61.80
2018-06-19T11:06:20.397Z,63.04
2018-06-19T11:07:20.500Z,62.55
2018-06-19T11:08:20.426Z,62.35
2018-06-19T11:09:20.416Z,62.62
2018-06-19T11:10:20.421Z,63.29
2018-06-19T11:11:20.429Z,63.98
2018-06-19T11:12:20.429Z,62.52
2018-06-19T11:13:20.439Z,64.95
2018-06-19T11:14:20.446Z,66.40
2018-06-19T11:15:20.452Z,64.33
2018-06-19T11:16:20.457Z,65.11
2018-06-19T11:17:20.465Z,64.17
2018-06-19T11:18:20.471Z,65.53
2018-06-19T11:19:20.477Z,66.50
2018-06-19T11:20:20.483Z,64.85
2018-06-19T11:21:20.500Z,64.85
2018-06-19T11:22:20.495Z,64.65
2018-06-19T11:23:20.499Z,65.14
2018-06-19T11:24:20.508Z,65.59
2018-06-19T11:25:20.515Z,65.79
2018-06-19T11:26:20.520Z,66.63
2018-06-19T11:27:20.521Z,65.85
2018-06-19T11:28:20.528Z,66.44
2018-06-19T11:29:20.540Z,67.40
2018-06-19T11:30:20.540Z,67.76
2018-06-19T11:31:20.548Z,67.76
2018-06-19T11:32:20.552Z,68.40
2018-06-19T11:33:20.557Z,68.40
2018-06-19T11:34:20.564Z,68.79
2018-06-19T11:35:20.570Z,69.76
2018-06-19T11:36:20.575Z,70.05
2018-06-19T11:37:20.581Z,69.57
2018-06-19T11:38:20.586Z,69.73
2018-06-19T11:39:20.593Z,69.15
2018-06-19T11:40:20.596Z,69.95
2018-06-19T11:41:20.603Z,69.24
2018-06-19T11:42:20.608Z,69.53
2018-06-19T11:43:20.620Z,69.92
2018-06-19T11:44:20.617Z,70.01
2018-06-19T11:45:20.624Z,70.11
2018-06-19T11:46:20.629Z,71.08
2018-06-19T11:47:20.633Z,70.34
2018-06-19T11:48:20.639Z,69.67
2018-06-19T11:49:20.641Z,69.57
2018-06-19T11:50:20.650Z,69.47
2018-06-19T11:51:20.656Z,70.63
2018-06-19T11:52:20.658Z,69.67
2018-06-19T11:53:20.670Z,69.67
2018-06-19T11:54:20.668Z,70.28
2018-06-19T11:55:20.674Z,69.70
2018-06-19T11:56:20.680Z,69.50
2018-06-19T11:57:20.684Z,68.28
2018-06-19T11:58:20.690Z,68.63
2018-06-19T11:59:20.695Z,69.24
2018-06-19T12:00:20.701Z,70.12
2018-06-19T12:01:20.707Z,70.31
2018-06-19T12:02:20.710Z,70.54
2018-06-19T12:03:20.715Z,66.86
2018-06-19T12:04:20.721Z,66.66
2018-06-19T12:05:20.725Z,66.86
2018-06-19T12:06:20.733Z,67.08
2018-06-19T12:07:20.738Z,68.35
2018-06-19T12:08:20.744Z,68.35
2018-06-19T12:09:20.747Z,68.05
2018-06-19T12:10:20.753Z,66.72
2018-06-19T12:11:20.760Z,66.34
2018-06-19T12:12:20.763Z,65.24
2018-06-19T12:13:20.770Z,66.79
2018-06-19T12:14:20.797Z,67.47
2018-06-19T12:15:20.780Z,68.05
2018-06-19T12:16:20.785Z,68.35
2018-06-19T12:17:20.791Z,69.12
2018-06-19T12:18:20.795Z,68.77
2018-06-19T12:19:20.800Z,66.72
2018-06-19T12:20:20.806Z,65.56
2018-06-19T12:21:20.819Z,65.95
2018-06-19T12:22:20.819Z,65.17
2018-06-19T12:23:20.824Z,64.69
2018-06-19T12:24:20.829Z,65.85
2018-06-19T12:25:20.839Z,67.73
2018-06-19T12:26:20.841Z,67.63
2018-06-19T12:27:20.850Z,66.63
2018-06-19T12:28:20.860Z,67.02
2018-06-19T12:29:20.856Z,64.88
2018-06-19T12:30:20.861Z,64.49
2018-06-19T12:31:20.874Z,65.47
2018-06-19T12:32:20.874Z,65.85
2018-06-19T12:33:20.877Z,66.63
2018-06-19T12:34:20.885Z,65.85
2018-06-19T12:35:20.891Z,65.66
2018-06-19T12:36:20.899Z,66.53
2018-06-19T12:37:20.941Z,67.50
2018-06-19T12:38:20.907Z,66.24
2018-06-19T12:39:20.914Z,66.72
2018-06-19T12:40:20.920Z,66.72
2018-06-19T12:41:20.924Z,66.92
2018-06-19T12:42:20.923Z,66.17
2018-06-19T12:43:20.936Z,66.24
2018-06-19T12:44:20.938Z,66.76
2018-06-19T12:45:20.949Z,66.02
2018-06-19T12:46:20.951Z,64.75
2018-06-19T12:47:20.958Z,64.91
2018-06-19T12:48:20.962Z,65.72
2018-06-19T12:49:20.968Z,65.04
2018-06-19T12:50:20.974Z,64.20
2018-06-19T12:51:20.981Z,64.17
2018-06-19T12:52:20.987Z,64.46